Random Lake, Wisconsin
Current Conditions -  °F | °C
As of 7:10 PM on Friday 19 Dec 2014 (Local Time) from KETB Reporting Station
Overcast Overcast  
Wind Chill: 28°   Ceiling: 3000
Heat Index: 28°   Visibility: 10mi
Dew Point: 21°   Wind: 3mph
Humidity: 74%   Direction: 330°NNW
Pressure: 30.27"   Gusts: NA
Location:  43.55°N, 87.96°W
Report Text: KETB 200110Z AUTO 33003KT 10SM OVC030 M02/M06 A3027 RMK AO2
Loading
Personal Weather Stations






























Interactive Weather Map New forecast layout! Learn more

10-Day Weather Forecast

Advertisements
Track Severe Weather on mobile